createdAt,value
2022-11-14T00:01:10.369Z,39.47
2022-11-14T00:03:38.108Z,41.47
2022-11-14T00:06:07.286Z,42.13
2022-11-14T00:08:35.718Z,42.43
2022-11-14T00:11:03.599Z,41.70
2022-11-14T00:13:31.321Z,42.50
2022-11-14T00:16:00.351Z,41.03
2022-11-14T00:18:28.381Z,41.07
2022-11-14T00:20:56.320Z,43.53
2022-11-14T00:23:24.022Z,44.17
2022-11-14T00:25:51.745Z,44.57
2022-11-14T00:28:19.441Z,43.30
2022-11-14T00:30:50.423Z,43.10
2022-11-14T00:33:21.129Z,46.23
2022-11-14T00:35:53.554Z,43.07
2022-11-14T00:38:21.427Z,45.07
2022-11-14T00:40:49.260Z,44.60
2022-11-14T00:43:16.957Z,42.43
2022-11-14T00:45:45.275Z,40.77
2022-11-14T00:48:12.981Z,41.10
2022-11-14T00:50:42.311Z,39.43
2022-11-14T00:53:10.247Z,39.07
2022-11-14T00:55:37.989Z,39.37
2022-11-14T00:58:05.704Z,36.63
2022-11-14T01:00:33.504Z,39.17
2022-11-14T01:03:01.442Z,39.37
2022-11-14T01:05:29.393Z,42.13
2022-11-14T01:07:58.455Z,41.27
2022-11-14T01:10:26.590Z,43.20
2022-11-14T01:12:54.332Z,41.23
2022-11-14T01:15:22.021Z,41.50
2022-11-14T01:17:49.717Z,41.33
2022-11-14T01:20:17.452Z,43.23
2022-11-14T01:22:45.188Z,43.40
2022-11-14T01:25:14.250Z,41.97
2022-11-14T01:27:41.984Z,42.37
2022-11-14T01:30:10.285Z,43.10
2022-11-14T01:32:38.451Z,42.63
2022-11-14T01:35:06.499Z,42.43
2022-11-14T01:37:34.259Z,43.37
2022-11-14T01:40:01.922Z,42.17
2022-11-14T01:42:30.953Z,42.13
2022-11-14T01:44:58.637Z,43.73
2022-11-14T01:47:30.563Z,43.77
2022-11-14T01:50:01.427Z,43.17
2022-11-14T01:52:32.580Z,41.10
2022-11-14T01:55:02.849Z,43.67
2022-11-14T01:57:36.244Z,39.27
2022-11-14T02:00:08.773Z,41.90
2022-11-14T02:02:37.492Z,40.83
2022-11-14T02:05:08.405Z,43.43
2022-11-14T02:07:39.900Z,41.27
2022-11-14T02:10:10.839Z,41.30
2022-11-14T02:12:40.047Z,41.10
2022-11-14T02:15:08.918Z,41.07
2022-11-14T02:17:36.968Z,39.97
2022-11-14T02:20:17.869Z,42.43
2022-11-14T02:22:45.619Z,39.37
2022-11-14T02:25:18.222Z,38.80
2022-11-14T02:27:45.975Z,40.93
2022-11-14T02:30:16.459Z,39.57
2022-11-14T02:33:09.405Z,39.60
2022-11-14T02:35:33.382Z,40.70
2022-11-14T02:38:01.096Z,42.33
2022-11-14T02:40:28.791Z,38.10
2022-11-14T02:42:56.551Z,40.70
2022-11-14T02:45:24.284Z,41.37
2022-11-14T02:47:52.027Z,41.93
2022-11-14T02:50:19.965Z,40.37
2022-11-14T02:52:49.197Z,40.47
2022-11-14T02:55:17.089Z,43.00
2022-11-14T02:57:44.802Z,41.37
2022-11-14T03:00:15.292Z,41.73
2022-11-14T03:02:43.327Z,40.93
2022-11-14T03:05:11.273Z,40.47
2022-11-14T03:07:39.012Z,39.63
2022-11-14T03:10:09.569Z,41.00
2022-11-14T03:12:37.354Z,39.67
2022-11-14T03:15:05.827Z,40.53
2022-11-14T03:17:34.346Z,40.23
2022-11-14T03:20:02.085Z,40.03
2022-11-14T03:22:30.043Z,40.50
2022-11-14T03:24:57.939Z,40.03
2022-11-14T03:27:26.998Z,40.77
2022-11-14T03:29:54.720Z,37.37
2022-11-14T03:32:22.458Z,40.13
2022-11-14T03:34:50.189Z,40.33
2022-11-14T03:37:17.928Z,39.67
2022-11-14T03:39:45.639Z,39.70
2022-11-14T03:42:13.346Z,38.73
2022-11-14T03:44:42.565Z,39.30
2022-11-14T03:47:10.307Z,40.43
2022-11-14T03:49:38.035Z,37.83
2022-11-14T03:52:06.003Z,38.47
2022-11-14T03:54:33.722Z,40.93
2022-11-14T03:57:01.450Z,41.93
2022-11-14T03:59:29.157Z,43.93
2022-11-14T04:01:58.236Z,43.40
2022-11-14T04:04:26.015Z,44.03
2022-11-14T04:06:53.814Z,45.73
2022-11-14T04:09:21.613Z,45.43
2022-11-14T04:11:49.318Z,47.83
2022-11-14T04:14:17.034Z,47.17
2022-11-14T04:16:44.755Z,46.00
2022-11-14T04:19:13.797Z,49.00
2022-11-14T04:21:41.593Z,48.60
2022-11-14T04:24:11.202Z,48.67
2022-11-14T04:26:39.171Z,46.53
2022-11-14T04:29:06.870Z,46.27
2022-11-14T04:31:34.626Z,47.13
2022-11-14T04:34:02.447Z,48.03
2022-11-14T04:36:31.538Z,45.83
2022-11-14T04:38:59.330Z,47.57
2022-11-14T04:41:27.068Z,48.27
2022-11-14T04:43:54.825Z,45.80
2022-11-14T04:46:22.713Z,44.73
2022-11-14T04:48:50.433Z,46.27
2022-11-14T04:51:18.209Z,47.47
2022-11-14T04:53:47.267Z,46.37
2022-11-14T04:56:15.046Z,46.67
2022-11-14T04:58:42.755Z,47.10
2022-11-14T05:01:11.062Z,45.00
2022-11-14T05:03:38.865Z,46.40
2022-11-14T05:06:06.926Z,44.20
2022-11-14T05:08:35.169Z,43.40
2022-11-14T05:11:04.239Z,44.03
2022-11-14T05:13:31.981Z,43.47
2022-11-14T05:16:00.655Z,41.80
2022-11-14T05:18:28.798Z,45.70
2022-11-14T05:20:59.459Z,45.87
2022-11-14T05:23:27.715Z,43.43
2022-11-14T05:26:05.243Z,46.63
2022-11-14T05:28:33.179Z,45.40
2022-11-14T05:31:04.707Z,45.20
2022-11-14T05:33:32.996Z,45.93
2022-11-14T05:36:04.558Z,46.07
2022-11-14T05:38:32.717Z,44.60
2022-11-14T05:41:00.748Z,46.07
2022-11-14T05:43:31.920Z,46.27
2022-11-14T05:46:00.776Z,45.67
2022-11-14T05:48:28.791Z,44.93
2022-11-14T05:50:57.343Z,44.67
2022-11-14T05:53:25.466Z,46.63
2022-11-14T05:55:53.325Z,45.97
2022-11-14T05:58:21.052Z,43.73
2022-11-14T06:00:54.150Z,46.23
2022-11-14T06:03:22.482Z,46.87
2022-11-14T06:05:50.436Z,46.07
2022-11-14T06:08:18.269Z,45.97
2022-11-14T06:10:46.195Z,46.10
2022-11-14T06:13:14.034Z,48.53
2022-11-14T06:15:42.170Z,46.97
2022-11-14T06:18:11.379Z,45.63
2022-11-14T06:20:39.293Z,43.37
2022-11-14T06:23:07.206Z,46.20
2022-11-14T06:25:35.219Z,44.53
2022-11-14T06:28:03.077Z,45.37
2022-11-14T06:30:31.038Z,43.97
2022-11-14T06:32:59.960Z,47.93
2022-11-14T06:35:29.248Z,49.83
2022-11-14T06:37:57.189Z,47.83
2022-11-14T06:40:25.187Z,50.33
2022-11-14T06:42:56.238Z,51.87
2022-11-14T06:45:24.223Z,48.67
2022-11-14T06:47:52.102Z,47.47
2022-11-14T06:50:19.959Z,50.03
2022-11-14T06:52:49.247Z,47.20
2022-11-14T06:55:22.356Z,50.53
2022-11-14T06:57:54.844Z,48.63
2022-11-14T07:00:22.911Z,51.30
2022-11-14T07:02:50.933Z,48.23
2022-11-14T07:05:18.808Z,50.37
2022-11-14T07:07:46.711Z,48.07
2022-11-14T07:10:16.020Z,46.53
2022-11-14T07:12:44.046Z,46.63
2022-11-14T07:15:12.104Z,46.93
2022-11-14T07:17:40.087Z,46.67
2022-11-14T07:20:09.308Z,44.77
2022-11-14T07:22:37.209Z,44.03
2022-11-14T07:25:05.520Z,44.87
2022-11-14T07:27:34.774Z,43.87
2022-11-14T07:30:02.702Z,44.30
2022-11-14T07:32:30.579Z,44.53
2022-11-14T07:35:02.293Z,43.20
2022-11-14T07:37:30.662Z,43.77
2022-11-14T07:39:58.610Z,43.27
2022-11-14T07:42:29.996Z,42.20
2022-11-14T07:44:59.233Z,42.20
2022-11-14T07:47:28.341Z,41.03
2022-11-14T07:49:56.206Z,40.77
2022-11-14T07:52:24.276Z,41.23
2022-11-14T07:54:52.201Z,41.97
2022-11-14T07:57:20.222Z,41.80
2022-11-14T07:59:49.250Z,39.67
2022-11-14T08:02:18.487Z,39.50
2022-11-14T08:04:46.378Z,39.60
2022-11-14T08:07:14.471Z,40.27
2022-11-14T08:09:42.385Z,38.70
2022-11-14T08:12:10.264Z,40.70
2022-11-14T08:14:38.123Z,39.90
2022-11-14T08:17:06.363Z,37.70
2022-11-14T08:19:35.562Z,38.10
2022-11-14T08:22:03.478Z,37.30
2022-11-14T08:24:31.419Z,35.73
2022-11-14T08:26:59.477Z,34.53
2022-11-14T08:29:27.381Z,35.63
2022-11-14T08:31:59.732Z,35.97
2022-11-14T08:34:29.267Z,35.07
2022-11-14T08:36:58.622Z,34.70
2022-11-14T08:39:26.483Z,34.27
2022-11-14T08:41:54.448Z,33.83
2022-11-14T08:44:22.607Z,34.43
2022-11-14T08:46:51.429Z,33.77
2022-11-14T08:49:19.470Z,32.07
2022-11-14T08:51:47.404Z,32.77
2022-11-14T08:54:16.599Z,33.43
2022-11-14T08:56:44.459Z,32.30
2022-11-14T08:59:12.392Z,33.13
2022-11-14T09:01:40.316Z,31.43
2022-11-14T09:04:09.131Z,32.40
2022-11-14T09:06:37.089Z,30.50
2022-11-14T09:09:05.115Z,31.43
2022-11-14T09:11:34.382Z,30.43
2022-11-14T09:14:02.942Z,31.10
2022-11-14T09:16:30.892Z,31.30
2022-11-14T09:18:58.762Z,30.20
2022-11-14T09:21:26.822Z,29.60
2022-11-14T09:24:00.408Z,31.33
2022-11-14T09:26:29.551Z,30.83
2022-11-14T09:28:58.886Z,30.83
2022-11-14T09:31:26.772Z,29.47
2022-11-14T09:33:54.976Z,27.87
2022-11-14T09:36:23.918Z,30.23
2022-11-14T09:38:52.907Z,27.87
2022-11-14T09:41:25.764Z,26.60
2022-11-14T09:44:25.527Z,27.10
2022-11-14T09:46:57.694Z,27.00
2022-11-14T09:49:30.925Z,27.93
2022-11-14T09:52:04.242Z,28.33
2022-11-14T09:54:42.051Z,26.73
2022-11-14T09:57:16.271Z,26.17
2022-11-14T09:59:45.726Z,26.67
2022-11-14T10:02:30.577Z,27.93
2022-11-14T10:05:12.187Z,26.83
2022-11-14T10:07:52.822Z,27.47
2022-11-14T10:10:38.352Z,27.03
2022-11-14T10:13:18.527Z,25.20
2022-11-14T10:15:55.008Z,25.87
2022-11-14T10:18:39.630Z,25.67
2022-11-14T10:21:22.879Z,26.33
2022-11-14T10:24:03.181Z,27.73
2022-11-14T10:26:33.115Z,26.40
2022-11-14T10:29:16.577Z,26.13
2022-11-14T10:31:55.530Z,27.00
2022-11-14T10:34:31.281Z,27.30
2022-11-14T10:37:04.224Z,27.10
2022-11-14T10:39:39.401Z,26.37
2022-11-14T10:42:14.500Z,25.43
2022-11-14T10:44:50.534Z,25.23
2022-11-14T10:47:24.273Z,24.87
2022-11-14T10:49:56.910Z,24.30
2022-11-14T10:52:37.972Z,24.73
2022-11-14T10:55:11.384Z,23.33
2022-11-14T10:57:39.268Z,23.70
2022-11-14T11:00:15.950Z,23.63
2022-11-14T11:02:53.708Z,23.90
2022-11-14T11:05:23.238Z,22.97
2022-11-14T11:08:41.544Z,24.17
2022-11-14T11:11:29.240Z,23.27
2022-11-14T11:13:59.189Z,23.20
2022-11-14T11:16:30.255Z,22.73
2022-11-14T11:19:16.111Z,21.80
2022-11-14T11:21:49.660Z,21.63
2022-11-14T11:24:33.072Z,22.67
2022-11-14T11:27:23.810Z,20.27
2022-11-14T11:30:04.785Z,22.33
2022-11-14T11:32:32.947Z,20.80
2022-11-14T11:35:04.757Z,20.90
2022-11-14T11:37:40.211Z,20.57
2022-11-14T11:40:16.920Z,21.20
2022-11-14T11:45:36.365Z,19.70
2022-11-14T11:48:14.907Z,19.43
2022-11-14T11:50:44.267Z,19.43
2022-11-14T11:53:19.995Z,19.50
2022-11-14T11:55:51.243Z,18.10
2022-11-14T11:58:23.767Z,18.43
2022-11-14T12:00:55.162Z,17.77
2022-11-14T12:03:25.507Z,18.00
2022-11-14T12:06:01.674Z,17.53
2022-11-14T12:08:37.071Z,17.83
2022-11-14T12:11:10.177Z,16.93
2022-11-14T12:14:03.064Z,18.13
2022-11-14T12:16:56.151Z,18.10
2022-11-14T12:19:59.247Z,17.60
2022-11-14T12:23:07.944Z,17.73
2022-11-14T12:26:07.626Z,18.03
2022-11-14T12:29:08.896Z,16.93
2022-11-14T12:31:39.405Z,17.00
2022-11-14T12:34:20.684Z,17.20
2022-11-14T12:36:48.872Z,16.07
2022-11-14T12:39:26.534Z,16.33
2022-11-14T12:42:03.499Z,16.20
2022-11-14T12:44:36.935Z,15.75
2022-11-14T12:47:15.336Z,15.10
2022-11-14T12:50:14.296Z,15.33
2022-11-14T12:52:45.038Z,15.27
2022-11-14T12:55:46.248Z,14.20
2022-11-14T12:58:22.457Z,14.67
2022-11-14T13:01:09.672Z,15.97
2022-11-14T13:03:54.473Z,14.47
2022-11-14T13:06:26.654Z,15.67
2022-11-14T13:09:27.416Z,14.97
2022-11-14T13:12:12.745Z,13.63
2022-11-14T13:15:10.350Z,13.03
2022-11-14T13:17:56.120Z,14.77
2022-11-14T13:20:46.535Z,13.40
2022-11-14T13:23:59.555Z,15.03
2022-11-14T13:26:47.529Z,15.00
2022-11-14T13:29:57.802Z,15.13
2022-11-14T13:32:55.425Z,14.87
2022-11-14T13:35:42.999Z,15.53
2022-11-14T13:38:45.949Z,14.20
2022-11-14T13:41:47.916Z,14.60
2022-11-14T13:44:44.801Z,14.40
2022-11-14T13:47:30.308Z,15.10
2022-11-14T13:50:04.793Z,14.60
2022-11-14T13:52:35.610Z,14.47
2022-11-14T13:55:04.037Z,13.87
2022-11-14T13:57:42.907Z,15.00
2022-11-14T14:00:19.609Z,15.80
2022-11-14T14:03:10.801Z,15.87
2022-11-14T14:06:05.133Z,14.60
2022-11-14T14:08:51.919Z,15.17
2022-11-14T14:11:41.682Z,16.23
2022-11-14T14:14:24.241Z,15.57
2022-11-14T14:16:57.736Z,16.40
2022-11-14T14:19:38.671Z,16.00
2022-11-14T14:22:16.091Z,16.03
2022-11-14T14:24:55.943Z,16.93
2022-11-14T14:27:30.296Z,15.53
2022-11-14T14:30:08.846Z,15.50
2022-11-14T14:32:36.772Z,15.37
2022-11-14T14:35:22.917Z,16.30
2022-11-14T14:37:53.288Z,15.80
2022-11-14T14:40:26.543Z,16.33
2022-11-14T14:42:57.383Z,15.63
2022-11-14T14:45:28.270Z,16.30
2022-11-14T14:48:03.382Z,16.27
2022-11-14T14:50:38.269Z,16.03
2022-11-14T14:53:08.105Z,15.80
2022-11-14T14:55:37.128Z,17.73
2022-11-14T14:58:22.023Z,18.27
2022-11-14T15:00:54.070Z,15.67
2022-11-14T15:03:23.817Z,14.17
2022-11-14T15:05:59.166Z,13.83
2022-11-14T15:08:31.190Z,15.67
2022-11-14T15:11:01.121Z,14.57
2022-11-14T15:13:30.966Z,15.97
2022-11-14T15:15:59.172Z,15.67
2022-11-14T15:18:29.539Z,15.47
2022-11-14T15:21:17.174Z,16.10
2022-11-14T15:23:46.494Z,15.33
2022-11-14T15:26:17.249Z,15.63
2022-11-14T15:28:45.690Z,15.77
2022-11-14T15:31:21.555Z,15.53
2022-11-14T15:34:02.732Z,16.13
2022-11-14T15:36:30.804Z,16.10
2022-11-14T15:39:05.848Z,16.27
2022-11-14T15:41:34.677Z,15.87
2022-11-14T15:44:05.699Z,17.50
2022-11-14T15:46:47.247Z,18.07
2022-11-14T15:49:24.022Z,17.37
2022-11-14T15:51:55.468Z,17.17
2022-11-14T15:54:27.410Z,17.30
2022-11-14T15:56:56.928Z,16.10
2022-11-14T15:59:25.897Z,18.70
2022-11-14T16:01:59.110Z,18.00
2022-11-14T16:04:32.010Z,18.53
2022-11-14T16:07:00.357Z,16.93
2022-11-14T16:09:29.633Z,18.23
2022-11-14T16:11:57.497Z,18.40
2022-11-14T16:14:25.355Z,18.53
2022-11-14T16:16:53.304Z,20.27
2022-11-14T16:19:21.963Z,19.97
2022-11-14T16:21:50.271Z,19.27
2022-11-14T16:24:20.076Z,20.27
2022-11-14T16:26:49.789Z,19.77
2022-11-14T16:29:17.639Z,17.40
2022-11-14T16:31:45.432Z,19.57
2022-11-14T16:34:19.264Z,20.70
2022-11-14T16:36:48.558Z,20.00
2022-11-14T16:39:16.659Z,19.47
2022-11-14T16:41:44.455Z,17.67
2022-11-14T16:44:17.220Z,19.00
2022-11-14T16:46:45.343Z,18.70
2022-11-14T16:49:15.253Z,17.53
2022-11-14T16:51:48.439Z,16.77
2022-11-14T16:54:17.984Z,18.67
2022-11-14T16:56:45.741Z,19.03
2022-11-14T16:59:15.304Z,19.43
2022-11-14T17:01:43.414Z,18.60
2022-11-14T17:04:11.195Z,21.70
2022-11-14T17:06:38.950Z,22.43
2022-11-14T17:09:06.658Z,20.60
2022-11-14T17:11:34.598Z,19.57
2022-11-14T17:14:02.338Z,19.87
2022-11-14T17:16:31.412Z,19.40
2022-11-14T17:18:59.187Z,20.67
2022-11-14T17:21:28.044Z,21.40
2022-11-14T17:23:56.494Z,20.07
2022-11-14T17:26:24.768Z,19.87
2022-11-14T17:28:52.518Z,19.30
2022-11-14T17:31:20.393Z,18.37
2022-11-14T17:33:53.854Z,17.83
2022-11-14T17:36:22.651Z,21.53
2022-11-14T17:38:50.418Z,23.57
2022-11-14T17:41:19.006Z,22.37
2022-11-14T17:43:47.133Z,21.60
2022-11-14T17:46:16.339Z,22.87
2022-11-14T17:48:44.549Z,23.03
2022-11-14T17:51:15.604Z,23.93
2022-11-14T17:53:44.006Z,24.03
2022-11-14T17:56:15.350Z,27.83
2022-11-14T17:58:43.167Z,29.10
2022-11-14T18:01:11.608Z,23.43
2022-11-14T18:03:39.522Z,23.63
2022-11-14T18:06:09.080Z,28.63
2022-11-14T18:08:38.631Z,23.20
2022-11-14T18:11:09.910Z,22.83
2022-11-14T18:13:38.902Z,22.20
2022-11-14T18:16:09.142Z,19.77
2022-11-14T18:18:38.126Z,20.27
2022-11-14T18:21:10.116Z,20.00
2022-11-14T18:23:39.647Z,19.13
2022-11-14T18:26:11.328Z,19.53
2022-11-14T18:28:39.096Z,18.80
2022-11-14T18:31:08.376Z,18.50
2022-11-14T18:33:36.441Z,19.43
2022-11-14T18:36:06.529Z,19.73
2022-11-14T18:38:34.324Z,20.23
2022-11-14T18:41:07.481Z,20.90
2022-11-14T18:43:35.220Z,21.23
2022-11-14T18:46:08.092Z,24.53
2022-11-14T18:48:36.473Z,25.20
2022-11-14T18:51:05.135Z,34.50
2022-11-14T18:53:33.764Z,38.47
2022-11-14T18:56:05.984Z,34.80
2022-11-14T18:58:35.965Z,28.60
2022-11-14T19:01:10.933Z,24.33
2022-11-14T19:03:38.736Z,23.73
2022-11-14T19:06:08.279Z,25.23
2022-11-14T19:08:36.053Z,25.93
2022-11-14T19:11:07.400Z,21.20
2022-11-14T19:13:35.160Z,22.70
2022-11-14T19:16:03.649Z,24.93
2022-11-14T19:18:32.248Z,25.90
2022-11-14T19:21:01.680Z,23.57
2022-11-14T19:23:30.129Z,23.67
2022-11-14T19:26:00.538Z,22.00
2022-11-14T19:28:30.282Z,21.77
2022-11-14T19:31:02.878Z,20.30
2022-11-14T19:33:31.009Z,22.20
2022-11-14T19:35:59.494Z,22.27
2022-11-14T19:38:27.261Z,22.23
2022-11-14T19:40:55.033Z,21.20
2022-11-14T19:43:25.329Z,23.43
2022-11-14T19:45:56.313Z,22.23
2022-11-14T19:48:24.605Z,23.10
2022-11-14T19:51:00.172Z,22.57
2022-11-14T19:53:28.460Z,21.83
2022-11-14T19:56:00.680Z,24.73
2022-11-14T19:58:28.430Z,22.00
2022-11-14T20:01:03.202Z,19.87
2022-11-14T20:03:31.363Z,19.93
2022-11-14T20:05:59.474Z,19.63
2022-11-14T20:08:27.339Z,19.73
2022-11-14T20:10:59.073Z,19.20
2022-11-14T20:13:27.115Z,18.97
2022-11-14T20:15:54.863Z,21.37
2022-11-14T20:18:23.894Z,21.67
2022-11-14T20:20:51.700Z,19.77
2022-11-14T20:23:19.714Z,20.37
2022-11-14T20:25:52.057Z,22.00
2022-11-14T20:28:19.844Z,22.53
2022-11-14T20:30:47.617Z,23.00
2022-11-14T20:33:15.412Z,22.60
2022-11-14T20:35:45.045Z,22.03
2022-11-14T20:38:12.914Z,25.30
2022-11-14T20:40:40.713Z,24.67
2022-11-14T20:43:09.053Z,23.43
2022-11-14T20:45:36.762Z,23.83
2022-11-14T20:48:05.495Z,24.03
2022-11-14T20:50:33.235Z,23.33
2022-11-14T20:53:02.269Z,23.20
2022-11-14T20:55:30.044Z,23.83
2022-11-14T20:57:57.787Z,21.53
2022-11-14T21:00:25.562Z,21.87
2022-11-14T21:02:53.681Z,20.67
2022-11-14T21:05:21.402Z,22.37
2022-11-14T21:07:49.224Z,21.70
2022-11-14T21:10:36.292Z,21.93
2022-11-14T21:13:26.422Z,20.57
2022-11-14T21:15:56.806Z,21.90
2022-11-14T21:18:24.563Z,20.40
2022-11-14T21:21:00.108Z,19.53
2022-11-14T21:23:27.860Z,21.07
2022-11-14T21:26:04.417Z,22.77
2022-11-14T21:28:32.684Z,21.03
2022-11-14T21:31:01.065Z,20.27
2022-11-14T21:33:31.419Z,20.93
2022-11-14T21:36:16.303Z,21.43
2022-11-14T21:38:48.139Z,23.90
2022-11-14T21:41:19.036Z,24.70
2022-11-14T21:43:47.724Z,22.77
2022-11-14T21:46:17.584Z,22.97
2022-11-14T21:48:46.711Z,24.17
2022-11-14T21:51:16.334Z,23.30
2022-11-14T21:53:45.644Z,24.50
2022-11-14T21:56:15.008Z,22.73
2022-11-14T21:58:44.721Z,22.67
2022-11-14T22:01:14.648Z,22.97
2022-11-14T22:04:00.685Z,23.50
2022-11-14T22:06:29.136Z,24.87
2022-11-14T22:08:56.917Z,23.57
2022-11-14T22:11:25.020Z,22.33
2022-11-14T22:13:54.144Z,24.27
2022-11-14T22:16:22.034Z,23.43
2022-11-14T22:18:52.253Z,23.23
2022-11-14T22:21:19.970Z,22.07
2022-11-14T22:23:47.756Z,21.83
2022-11-14T22:26:15.761Z,23.50
2022-11-14T22:28:43.488Z,22.87
2022-11-14T22:31:14.216Z,23.60
2022-11-14T22:33:46.796Z,25.60
2022-11-14T22:36:16.442Z,24.27
2022-11-14T22:38:45.101Z,24.37
2022-11-14T22:41:17.278Z,24.40
2022-11-14T22:43:45.673Z,25.20
2022-11-14T22:46:17.119Z,24.33
2022-11-14T22:48:46.134Z,24.87
2022-11-14T22:51:15.895Z,24.50
2022-11-14T22:53:46.265Z,22.80
2022-11-14T22:56:13.948Z,24.07
2022-11-14T22:58:42.964Z,24.00
2022-11-14T23:01:14.465Z,23.47
2022-11-14T23:03:42.276Z,23.97
2022-11-14T23:06:10.928Z,23.40
2022-11-14T23:08:38.877Z,24.37
2022-11-14T23:11:09.392Z,26.10
2022-11-14T23:13:41.264Z,26.50
2022-11-14T23:16:09.413Z,26.40
2022-11-14T23:18:39.179Z,28.10
2022-11-14T23:21:08.705Z,26.00
2022-11-14T23:23:36.575Z,25.20
2022-11-14T23:26:05.188Z,24.60
2022-11-14T23:28:33.395Z,23.60
2022-11-14T23:31:02.101Z,24.73
2022-11-14T23:33:30.480Z,23.83
2022-11-14T23:35:59.863Z,24.53
2022-11-14T23:38:28.004Z,24.77
2022-11-14T23:40:57.036Z,22.70
2022-11-14T23:43:25.034Z,23.93
2022-11-14T23:45:52.762Z,25.60
2022-11-14T23:48:21.947Z,25.77
2022-11-14T23:50:51.222Z,28.13
2022-11-14T23:53:20.679Z,28.67
2022-11-14T23:55:53.076Z,27.23
2022-11-14T23:58:21.298Z,28.13
